CST,Max TemperatureF,Mean TemperatureF,Min TemperatureF,Max Dew PointF,MeanDew PointF,Min DewpointF,Max Humidity, Mean Humidity, Min Humidity, Max Sea Level PressureIn, Mean Sea Level PressureIn, Min Sea Level PressureIn, Max VisibilityMiles, Mean VisibilityMiles, Min VisibilityMiles, Max Wind SpeedMPH, Mean Wind SpeedMPH, Max Gust SpeedMPH,PrecipitationIn, CloudCover, Events, WindDirDegrees
2013-11-1,54,47,41,40,38,34,90,77,49,29.86,29.66,29.49,10,10,10,17,10,23,0.00,6,Rain,287
2013-11-2,52,42,32,38,34,29,92,76,45,30.13,30.04,29.86,10,10,10,17,9,22,0.00,4,,304
2013-11-3,54,42,30,36,32,28,91,68,45,30.15,30.05,29.93,10,10,10,26,11,34,0.00,0,,138
2013-11-4,51,42,32,46,39,31,96,83,62,30.17,29.99,29.91,10,10,10,24,15,30,0.05,5,Rain,172
2013-11-5,47,38,28,46,39,28,98,94,85,30.20,30.03,29.80,10,6,2,21,4,26,1.23,7,Rain,48
2013-11-6,43,35,27,36,28,22,95,78,42,30.24,30.10,29.85,10,10,2,23,16,36,0.00,3,Rain,304
2013-11-7,45,36,28,33,28,24,92,80,48,30.30,30.26,30.21,10,10,10,16,9,21,0.00,2,,267
2013-11-8,51,37,23,37,29,20,91,68,46,30.26,29.99,29.76,10,10,10,31,10,39,0.00,1,,166
2013-11-9,52,42,33,37,34,27,83,68,52,30.28,30.03,29.79,10,10,10,24,16,31,0.00,1,,277
2013-11-10,44,33,22,31,27,20,91,73,59,30.40,30.29,30.12,10,10,10,12,8,17,0.00,4,,233
2013-11-11,41,28,15,32,22,10,88,76,67,30.69,30.37,30.09,10,10,1,22,12,29,0.00,4,Snow,332
2013-11-12,27,18,8,14,10,5,86,74,55,30.82,30.71,30.54,10,9,4,12,8,,0.00,0,,274
2013-11-13,49,34,19,26,19,12,74,57,38,30.53,30.24,30.00,10,8,5,28,14,33,0.00,0,,199
2013-11-14,50,41,32,32,26,21,82,59,43,30.00,29.91,29.86,10,10,10,17,13,23,0.00,1,,216
2013-11-15,54,40,26,36,31,24,90,73,46,29.91,29.83,29.72,10,10,7,13,6,,0.00,0,,172
2013-11-16,62,50,37,56,45,33,96,88,80,29.73,29.47,29.28,10,8,2,22,13,29,0.00,4,Rain,163
2013-11-17,47,41,35,41,38,32,91,83,72,29.92,29.56,29.32,10,10,5,29,9,36,0.14,5,Rain,283
2013-11-18,41,33,25,33,29,24,93,83,65,30.27,30.14,29.92,10,10,7,21,12,25,0.00,2,,284
2013-11-19,47,35,23,32,28,22,94,74,55,30.27,30.14,30.01,10,9,5,25,11,31,0.00,2,,132
2013-11-20,41,39,37,36,32,25,92,77,52,30.02,29.97,29.90,10,9,5,26,18,36,0.00,8,Rain,146
2013-11-21,38,32,25,36,29,23,96,90,87,30.43,30.21,30.03,10,6,0,20,9,26,0.00,8,Fog-Snow,336
2013-11-22,25,18,12,23,13,8,89,80,65,30.61,30.54,30.44,10,10,2,22,14,28,0.00,2,Snow,299
2013-11-23,18,10,1,12,3,-4,82,73,60,30.80,30.73,30.57,10,10,10,23,14,30,0.00,0,,323
2013-11-24,24,12,1,13,6,-4,83,70,53,30.72,30.48,30.20,10,9,5,20,7,24,0.00,0,,184
2013-11-25,34,26,19,29,22,13,91,80,66,30.19,30.10,30.05,10,6,0,25,16,32,0.00,5,Snow,238
2013-11-26,30,21,12,25,13,5,85,67,52,30.33,30.22,30.10,10,9,5,29,15,37,0.00,4,,320
2013-11-27,23,12,1,13,7,-3,85,74,58,30.36,30.25,30.05,10,8,5,14,8,,0.00,0,,239
2013-11-28,31,18,6,19,12,3,89,76,56,30.50,30.27,30.03,10,7,4,17,7,20,0.00,0,,318
2013-11-29,31,18,6,23,15,2,87,78,66,30.51,30.40,30.20,10,7,4,17,5,20,0.00,0,,145
2013-11-30,44,34,24,33,27,22,89,79,62,30.19,30.09,30.04,10,8,5,15,10,,0.00,0,,226